sensor_id;sensor_type;location;lat;lon;timestamp;P1;durP1;ratioP1;P2;durP2;ratioP2
10100;SDS011;5090;51.258;4.436;2023-02-04T00:02:28;34.30;;;16.97;;
10100;SDS011;5090;51.258;4.436;2023-02-04T00:04:56;33.80;;;17.17;;
10100;SDS011;5090;51.258;4.436;2023-02-04T00:07:24;41.03;;;16.47;;
10100;SDS011;5090;51.258;4.436;2023-02-04T00:09:52;44.87;;;18.30;;
10100;SDS011;5090;51.258;4.436;2023-02-04T00:12:21;50.50;;;19.43;;
10100;SDS011;5090;51.258;4.436;2023-02-04T00:14:49;47.17;;;19.40;;
10100;SDS011;5090;51.258;4.436;2023-02-04T00:17:17;46.47;;;19.00;;
10100;SDS011;5090;51.258;4.436;2023-02-04T00:19:45;36.90;;;18.60;;
10100;SDS011;5090;51.258;4.436;2023-02-04T00:22:13;45.27;;;19.60;;
10100;SDS011;5090;51.258;4.436;2023-02-04T00:24:41;45.23;;;20.50;;
10100;SDS011;5090;51.258;4.436;2023-02-04T00:27:10;49.83;;;21.13;;
10100;SDS011;5090;51.258;4.436;2023-02-04T00:29:38;46.20;;;20.97;;
10100;SDS011;5090;51.258;4.436;2023-02-04T00:32:06;51.20;;;23.10;;
10100;SDS011;5090;51.258;4.436;2023-02-04T00:34:34;52.00;;;21.80;;
10100;SDS011;5090;51.258;4.436;2023-02-04T00:37:02;51.33;;;22.57;;
10100;SDS011;5090;51.258;4.436;2023-02-04T00:39:31;47.40;;;22.93;;
10100;SDS011;5090;51.258;4.436;2023-02-04T00:41:59;58.63;;;24.43;;
10100;SDS011;5090;51.258;4.436;2023-02-04T00:44:27;60.60;;;24.93;;
10100;SDS011;5090;51.258;4.436;2023-02-04T00:46:55;49.43;;;20.33;;
10100;SDS011;5090;51.258;4.436;2023-02-04T00:49:23;53.03;;;23.30;;
10100;SDS011;5090;51.258;4.436;2023-02-04T00:51:52;46.27;;;22.87;;
10100;SDS011;5090;51.258;4.436;2023-02-04T00:54:20;38.97;;;17.00;;
10100;SDS011;5090;51.258;4.436;2023-02-04T00:56:48;43.43;;;19.53;;
10100;SDS011;5090;51.258;4.436;2023-02-04T00:59:16;42.77;;;17.90;;
10100;SDS011;5090;51.258;4.436;2023-02-04T01:01:44;35.67;;;19.37;;
10100;SDS011;5090;51.258;4.436;2023-02-04T01:04:13;32.93;;;16.23;;
10100;SDS011;5090;51.258;4.436;2023-02-04T01:06:41;37.13;;;17.27;;
10100;SDS011;5090;51.258;4.436;2023-02-04T01:09:09;37.87;;;16.63;;
10100;SDS011;5090;51.258;4.436;2023-02-04T01:11:37;32.23;;;16.10;;
10100;SDS011;5090;51.258;4.436;2023-02-04T01:14:06;39.37;;;18.17;;
10100;SDS011;5090;51.258;4.436;2023-02-04T01:16:34;56.93;;;19.97;;
10100;SDS011;5090;51.258;4.436;2023-02-04T01:19:02;39.60;;;19.20;;
10100;SDS011;5090;51.258;4.436;2023-02-04T01:21:30;47.80;;;20.53;;
10100;SDS011;5090;51.258;4.436;2023-02-04T01:23:58;43.47;;;20.23;;
10100;SDS011;5090;51.258;4.436;2023-02-04T01:26:27;44.00;;;22.00;;
10100;SDS011;5090;51.258;4.436;2023-02-04T01:28:55;46.13;;;22.07;;
10100;SDS011;5090;51.258;4.436;2023-02-04T01:31:23;48.70;;;21.73;;
10100;SDS011;5090;51.258;4.436;2023-02-04T01:33:51;43.93;;;21.30;;
10100;SDS011;5090;51.258;4.436;2023-02-04T01:36:19;43.23;;;20.40;;
10100;SDS011;5090;51.258;4.436;2023-02-04T01:38:48;42.40;;;21.30;;
10100;SDS011;5090;51.258;4.436;2023-02-04T01:41:16;56.13;;;22.57;;
10100;SDS011;5090;51.258;4.436;2023-02-04T01:43:44;48.87;;;22.93;;
10100;SDS011;5090;51.258;4.436;2023-02-04T01:46:12;47.80;;;21.47;;
10100;SDS011;5090;51.258;4.436;2023-02-04T01:48:40;53.57;;;24.53;;
10100;SDS011;5090;51.258;4.436;2023-02-04T01:51:11;53.87;;;21.43;;
10100;SDS011;5090;51.258;4.436;2023-02-04T01:53:38;49.60;;;21.27;;
10100;SDS011;5090;51.258;4.436;2023-02-04T01:56:10;61.93;;;22.30;;
10100;SDS011;5090;51.258;4.436;2023-02-04T01:58:34;40.07;;;22.13;;
10100;SDS011;5090;51.258;4.436;2023-02-04T02:01:05;54.20;;;21.93;;
10100;SDS011;5090;51.258;4.436;2023-02-04T02:03:30;49.90;;;21.47;;
10100;SDS011;5090;51.258;4.436;2023-02-04T02:05:58;52.73;;;21.77;;
10100;SDS011;5090;51.258;4.436;2023-02-04T02:08:27;47.70;;;22.20;;
10100;SDS011;5090;51.258;4.436;2023-02-04T02:10:55;44.53;;;21.70;;
10100;SDS011;5090;51.258;4.436;2023-02-04T02:13:24;49.40;;;20.90;;
10100;SDS011;5090;51.258;4.436;2023-02-04T02:15:52;39.00;;;21.17;;
10100;SDS011;5090;51.258;4.436;2023-02-04T02:18:20;49.57;;;22.60;;
10100;SDS011;5090;51.258;4.436;2023-02-04T02:20:48;49.93;;;21.53;;
10100;SDS011;5090;51.258;4.436;2023-02-04T02:23:19;44.37;;;21.80;;
10100;SDS011;5090;51.258;4.436;2023-02-04T02:25:45;47.43;;;20.70;;
10100;SDS011;5090;51.258;4.436;2023-02-04T02:28:15;41.70;;;20.03;;
10100;SDS011;5090;51.258;4.436;2023-02-04T02:30:42;48.33;;;19.97;;
10100;SDS011;5090;51.258;4.436;2023-02-04T02:33:14;44.87;;;19.97;;
10100;SDS011;5090;51.258;4.436;2023-02-04T02:35:41;41.70;;;19.70;;
10100;SDS011;5090;51.258;4.436;2023-02-04T02:38:10;37.57;;;17.80;;
10100;SDS011;5090;51.258;4.436;2023-02-04T02:40:38;38.00;;;16.93;;
10100;SDS011;5090;51.258;4.436;2023-02-04T02:43:06;41.87;;;18.00;;
10100;SDS011;5090;51.258;4.436;2023-02-04T02:45:34;38.30;;;18.13;;
10100;SDS011;5090;51.258;4.436;2023-02-04T02:48:02;33.00;;;17.70;;
10100;SDS011;5090;51.258;4.436;2023-02-04T02:50:31;34.90;;;17.17;;
10100;SDS011;5090;51.258;4.436;2023-02-04T02:52:59;35.77;;;16.30;;
10100;SDS011;5090;51.258;4.436;2023-02-04T02:55:27;37.00;;;16.93;;
10100;SDS011;5090;51.258;4.436;2023-02-04T02:57:55;33.47;;;16.73;;
10100;SDS011;5090;51.258;4.436;2023-02-04T03:00:27;30.63;;;17.87;;
10100;SDS011;5090;51.258;4.436;2023-02-04T03:02:58;32.23;;;16.77;;
10100;SDS011;5090;51.258;4.436;2023-02-04T03:05:24;35.07;;;17.50;;
10100;SDS011;5090;51.258;4.436;2023-02-04T03:07:52;35.60;;;18.70;;
10100;SDS011;5090;51.258;4.436;2023-02-04T03:10:20;33.10;;;15.43;;
10100;SDS011;5090;51.258;4.436;2023-02-04T03:12:48;29.03;;;13.87;;
10100;SDS011;5090;51.258;4.436;2023-02-04T03:15:17;33.83;;;13.33;;
10100;SDS011;5090;51.258;4.436;2023-02-04T03:17:45;23.27;;;11.00;;
10100;SDS011;5090;51.258;4.436;2023-02-04T03:20:13;25.87;;;13.23;;
10100;SDS011;5090;51.258;4.436;2023-02-04T03:22:41;30.97;;;15.63;;
10100;SDS011;5090;51.258;4.436;2023-02-04T03:25:09;33.47;;;14.83;;
10100;SDS011;5090;51.258;4.436;2023-02-04T03:27:38;32.10;;;14.93;;
10100;SDS011;5090;51.258;4.436;2023-02-04T03:30:06;32.70;;;16.20;;
10100;SDS011;5090;51.258;4.436;2023-02-04T03:32:34;31.23;;;14.67;;
10100;SDS011;5090;51.258;4.436;2023-02-04T03:35:02;27.57;;;14.80;;
10100;SDS011;5090;51.258;4.436;2023-02-04T03:37:31;32.73;;;15.50;;
10100;SDS011;5090;51.258;4.436;2023-02-04T03:39:59;37.30;;;16.80;;
10100;SDS011;5090;51.258;4.436;2023-02-04T03:42:27;29.43;;;17.00;;
10100;SDS011;5090;51.258;4.436;2023-02-04T03:44:56;30.83;;;16.97;;
10100;SDS011;5090;51.258;4.436;2023-02-04T03:47:24;33.30;;;18.20;;
10100;SDS011;5090;51.258;4.436;2023-02-04T03:49:52;33.63;;;17.23;;
10100;SDS011;5090;51.258;4.436;2023-02-04T03:52:21;33.13;;;17.20;;
10100;SDS011;5090;51.258;4.436;2023-02-04T03:54:49;32.33;;;18.17;;
10100;SDS011;5090;51.258;4.436;2023-02-04T03:57:17;39.23;;;20.23;;
10100;SDS011;5090;51.258;4.436;2023-02-04T03:59:45;38.43;;;20.40;;
10100;SDS011;5090;51.258;4.436;2023-02-04T04:02:13;37.00;;;18.50;;
10100;SDS011;5090;51.258;4.436;2023-02-04T04:04:42;36.57;;;17.77;;
10100;SDS011;5090;51.258;4.436;2023-02-04T04:07:10;36.37;;;18.23;;
10100;SDS011;5090;51.258;4.436;2023-02-04T04:09:38;40.50;;;18.90;;
10100;SDS011;5090;51.258;4.436;2023-02-04T04:12:07;43.73;;;18.53;;
10100;SDS011;5090;51.258;4.436;2023-02-04T04:14:35;36.37;;;19.13;;
10100;SDS011;5090;51.258;4.436;2023-02-04T04:17:03;34.77;;;19.93;;
10100;SDS011;5090;51.258;4.436;2023-02-04T04:19:31;39.87;;;20.23;;
10100;SDS011;5090;51.258;4.436;2023-02-04T04:21:59;41.27;;;19.77;;
10100;SDS011;5090;51.258;4.436;2023-02-04T04:24:27;51.10;;;21.30;;
10100;SDS011;5090;51.258;4.436;2023-02-04T04:26:56;39.60;;;20.73;;
10100;SDS011;5090;51.258;4.436;2023-02-04T04:29:24;44.50;;;21.73;;
10100;SDS011;5090;51.258;4.436;2023-02-04T04:31:52;41.47;;;21.57;;
10100;SDS011;5090;51.258;4.436;2023-02-04T04:34:20;48.43;;;21.00;;
10100;SDS011;5090;51.258;4.436;2023-02-04T04:36:48;39.57;;;21.83;;
10100;SDS011;5090;51.258;4.436;2023-02-04T04:39:17;45.70;;;22.27;;
10100;SDS011;5090;51.258;4.436;2023-02-04T04:41:45;44.63;;;21.90;;
10100;SDS011;5090;51.258;4.436;2023-02-04T04:44:13;52.97;;;23.33;;
10100;SDS011;5090;51.258;4.436;2023-02-04T04:46:41;43.87;;;21.27;;
10100;SDS011;5090;51.258;4.436;2023-02-04T04:49:09;41.90;;;21.37;;
10100;SDS011;5090;51.258;4.436;2023-02-04T04:51:37;45.57;;;23.00;;
10100;SDS011;5090;51.258;4.436;2023-02-04T04:54:06;43.27;;;21.57;;
10100;SDS011;5090;51.258;4.436;2023-02-04T04:56:34;42.53;;;21.97;;
10100;SDS011;5090;51.258;4.436;2023-02-04T04:59:02;39.37;;;20.87;;
10100;SDS011;5090;51.258;4.436;2023-02-04T05:01:31;41.13;;;21.43;;
10100;SDS011;5090;51.258;4.436;2023-02-04T05:03:58;51.53;;;22.07;;
10100;SDS011;5090;51.258;4.436;2023-02-04T05:06:27;47.63;;;22.07;;
10100;SDS011;5090;51.258;4.436;2023-02-04T05:08:55;41.13;;;21.27;;
10100;SDS011;5090;51.258;4.436;2023-02-04T05:11:23;47.37;;;22.60;;
10100;SDS011;5090;51.258;4.436;2023-02-04T05:13:51;52.20;;;22.50;;
10100;SDS011;5090;51.258;4.436;2023-02-04T05:16:19;58.17;;;23.20;;
10100;SDS011;5090;51.258;4.436;2023-02-04T05:18:47;65.87;;;23.23;;
10100;SDS011;5090;51.258;4.436;2023-02-04T05:21:16;56.23;;;22.77;;
10100;SDS011;5090;51.258;4.436;2023-02-04T05:23:44;52.43;;;21.40;;
10100;SDS011;5090;51.258;4.436;2023-02-04T05:26:12;68.90;;;22.40;;
10100;SDS011;5090;51.258;4.436;2023-02-04T05:28:40;62.37;;;21.97;;
10100;SDS011;5090;51.258;4.436;2023-02-04T05:31:09;63.93;;;23.33;;
10100;SDS011;5090;51.258;4.436;2023-02-04T05:33:37;59.33;;;22.10;;
10100;SDS011;5090;51.258;4.436;2023-02-04T05:36:05;52.67;;;23.57;;
10100;SDS011;5090;51.258;4.436;2023-02-04T05:38:33;53.63;;;22.63;;
10100;SDS011;5090;51.258;4.436;2023-02-04T05:41:01;53.77;;;25.50;;
10100;SDS011;5090;51.258;4.436;2023-02-04T05:43:30;66.77;;;24.47;;
10100;SDS011;5090;51.258;4.436;2023-02-04T05:45:58;55.87;;;24.73;;
10100;SDS011;5090;51.258;4.436;2023-02-04T05:48:26;65.53;;;24.53;;
10100;SDS011;5090;51.258;4.436;2023-02-04T05:50:54;58.20;;;25.53;;
10100;SDS011;5090;51.258;4.436;2023-02-04T05:53:22;56.60;;;23.37;;
10100;SDS011;5090;51.258;4.436;2023-02-04T05:55:51;57.10;;;24.33;;
10100;SDS011;5090;51.258;4.436;2023-02-04T05:58:19;58.73;;;24.33;;
10100;SDS011;5090;51.258;4.436;2023-02-04T06:00:47;58.90;;;23.97;;
10100;SDS011;5090;51.258;4.436;2023-02-04T06:03:15;53.97;;;23.77;;
10100;SDS011;5090;51.258;4.436;2023-02-04T06:05:43;52.87;;;23.70;;
10100;SDS011;5090;51.258;4.436;2023-02-04T06:08:12;52.10;;;23.43;;
10100;SDS011;5090;51.258;4.436;2023-02-04T06:10:40;55.87;;;23.83;;
10100;SDS011;5090;51.258;4.436;2023-02-04T06:13:08;50.13;;;23.93;;
10100;SDS011;5090;51.258;4.436;2023-02-04T06:15:36;55.47;;;24.47;;
10100;SDS011;5090;51.258;4.436;2023-02-04T06:18:04;47.60;;;23.90;;
10100;SDS011;5090;51.258;4.436;2023-02-04T06:20:34;55.43;;;23.00;;
10100;SDS011;5090;51.258;4.436;2023-02-04T06:23:02;59.47;;;24.57;;
10100;SDS011;5090;51.258;4.436;2023-02-04T06:25:30;56.57;;;24.63;;
10100;SDS011;5090;51.258;4.436;2023-02-04T06:27:59;56.60;;;25.13;;
10100;SDS011;5090;51.258;4.436;2023-02-04T06:30:27;63.30;;;27.10;;
10100;SDS011;5090;51.258;4.436;2023-02-04T06:32:55;57.80;;;26.43;;
10100;SDS011;5090;51.258;4.436;2023-02-04T06:35:23;56.13;;;24.80;;
10100;SDS011;5090;51.258;4.436;2023-02-04T06:37:51;63.30;;;28.03;;
10100;SDS011;5090;51.258;4.436;2023-02-04T06:40:20;60.17;;;25.87;;
10100;SDS011;5090;51.258;4.436;2023-02-04T06:42:48;57.50;;;26.90;;
10100;SDS011;5090;51.258;4.436;2023-02-04T06:45:16;50.33;;;25.07;;
10100;SDS011;5090;51.258;4.436;2023-02-04T06:47:44;56.03;;;27.03;;
10100;SDS011;5090;51.258;4.436;2023-02-04T06:50:13;60.27;;;26.07;;
10100;SDS011;5090;51.258;4.436;2023-02-04T06:52:41;62.57;;;27.50;;
10100;SDS011;5090;51.258;4.436;2023-02-04T06:55:09;71.90;;;27.03;;
10100;SDS011;5090;51.258;4.436;2023-02-04T06:57:37;65.97;;;26.53;;
10100;SDS011;5090;51.258;4.436;2023-02-04T07:00:06;70.10;;;27.23;;
10100;SDS011;5090;51.258;4.436;2023-02-04T07:02:34;66.53;;;27.40;;
10100;SDS011;5090;51.258;4.436;2023-02-04T07:05:03;61.93;;;26.60;;
10100;SDS011;5090;51.258;4.436;2023-02-04T07:07:31;67.17;;;26.77;;
10100;SDS011;5090;51.258;4.436;2023-02-04T07:09:59;73.63;;;29.83;;
10100;SDS011;5090;51.258;4.436;2023-02-04T07:12:27;69.10;;;28.47;;
10100;SDS011;5090;51.258;4.436;2023-02-04T07:14:56;67.70;;;28.90;;
10100;SDS011;5090;51.258;4.436;2023-02-04T07:17:24;69.23;;;26.93;;
10100;SDS011;5090;51.258;4.436;2023-02-04T07:19:52;58.33;;;26.33;;
10100;SDS011;5090;51.258;4.436;2023-02-04T07:22:20;63.87;;;25.63;;
10100;SDS011;5090;51.258;4.436;2023-02-04T07:24:48;66.10;;;28.27;;
10100;SDS011;5090;51.258;4.436;2023-02-04T07:27:17;85.00;;;32.80;;
10100;SDS011;5090;51.258;4.436;2023-02-04T07:29:45;103.80;;;38.37;;
10100;SDS011;5090;51.258;4.436;2023-02-04T07:32:13;264.83;;;85.53;;
10100;SDS011;5090;51.258;4.436;2023-02-04T07:34:41;83.90;;;32.60;;
10100;SDS011;5090;51.258;4.436;2023-02-04T07:37:09;73.47;;;27.60;;
10100;SDS011;5090;51.258;4.436;2023-02-04T07:39:38;58.73;;;25.33;;
10100;SDS011;5090;51.258;4.436;2023-02-04T07:42:06;73.43;;;28.80;;
10100;SDS011;5090;51.258;4.436;2023-02-04T07:44:34;81.53;;;28.83;;
10100;SDS011;5090;51.258;4.436;2023-02-04T07:47:02;75.23;;;25.60;;
10100;SDS011;5090;51.258;4.436;2023-02-04T07:49:30;75.90;;;25.27;;
10100;SDS011;5090;51.258;4.436;2023-02-04T07:51:59;66.80;;;25.30;;
10100;SDS011;5090;51.258;4.436;2023-02-04T07:54:27;67.03;;;23.97;;
10100;SDS011;5090;51.258;4.436;2023-02-04T07:56:55;70.30;;;26.50;;
10100;SDS011;5090;51.258;4.436;2023-02-04T07:59:23;62.50;;;24.10;;
10100;SDS011;5090;51.258;4.436;2023-02-04T08:01:51;72.40;;;24.77;;
10100;SDS011;5090;51.258;4.436;2023-02-04T08:04:20;60.43;;;23.20;;
10100;SDS011;5090;51.258;4.436;2023-02-04T08:06:48;68.70;;;25.30;;
10100;SDS011;5090;51.258;4.436;2023-02-04T08:09:16;64.70;;;23.73;;
10100;SDS011;5090;51.258;4.436;2023-02-04T08:11:44;72.43;;;23.93;;
10100;SDS011;5090;51.258;4.436;2023-02-04T08:14:12;74.90;;;24.57;;
10100;SDS011;5090;51.258;4.436;2023-02-04T08:16:41;64.93;;;22.70;;
10100;SDS011;5090;51.258;4.436;2023-02-04T08:19:09;47.63;;;17.50;;
10100;SDS011;5090;51.258;4.436;2023-02-04T08:21:37;55.37;;;19.87;;
10100;SDS011;5090;51.258;4.436;2023-02-04T08:24:05;56.27;;;21.93;;
10100;SDS011;5090;51.258;4.436;2023-02-04T08:26:33;48.57;;;20.33;;
10100;SDS011;5090;51.258;4.436;2023-02-04T08:29:02;52.83;;;23.03;;
10100;SDS011;5090;51.258;4.436;2023-02-04T08:31:30;52.50;;;21.17;;
10100;SDS011;5090;51.258;4.436;2023-02-04T08:33:58;50.97;;;20.73;;
10100;SDS011;5090;51.258;4.436;2023-02-04T08:36:26;31.23;;;13.07;;
10100;SDS011;5090;51.258;4.436;2023-02-04T08:38:55;43.67;;;17.63;;
10100;SDS011;5090;51.258;4.436;2023-02-04T08:41:23;33.40;;;14.23;;
10100;SDS011;5090;51.258;4.436;2023-02-04T08:43:51;38.50;;;16.47;;
10100;SDS011;5090;51.258;4.436;2023-02-04T08:46:19;35.50;;;16.33;;
10100;SDS011;5090;51.258;4.436;2023-02-04T08:48:47;39.13;;;17.00;;
10100;SDS011;5090;51.258;4.436;2023-02-04T08:51:16;44.00;;;18.07;;
10100;SDS011;5090;51.258;4.436;2023-02-04T08:53:44;44.07;;;17.97;;
10100;SDS011;5090;51.258;4.436;2023-02-04T08:56:12;40.40;;;18.80;;
10100;SDS011;5090;51.258;4.436;2023-02-04T08:58:41;41.10;;;17.87;;
10100;SDS011;5090;51.258;4.436;2023-02-04T09:01:09;29.90;;;13.60;;
10100;SDS011;5090;51.258;4.436;2023-02-04T09:03:37;31.57;;;13.93;;
10100;SDS011;5090;51.258;4.436;2023-02-04T09:06:05;38.40;;;14.07;;
10100;SDS011;5090;51.258;4.436;2023-02-04T09:08:33;37.53;;;15.47;;
10100;SDS011;5090;51.258;4.436;2023-02-04T09:11:02;35.00;;;15.80;;
10100;SDS011;5090;51.258;4.436;2023-02-04T09:13:30;36.73;;;14.70;;
10100;SDS011;5090;51.258;4.436;2023-02-04T09:15:58;24.57;;;11.73;;
10100;SDS011;5090;51.258;4.436;2023-02-04T09:18:26;30.33;;;11.73;;
10100;SDS011;5090;51.258;4.436;2023-02-04T09:20:55;24.50;;;9.93;;
10100;SDS011;5090;51.258;4.436;2023-02-04T09:23:23;21.57;;;10.60;;
10100;SDS011;5090;51.258;4.436;2023-02-04T09:25:52;35.57;;;12.80;;
10100;SDS011;5090;51.258;4.436;2023-02-04T09:28:20;33.07;;;13.03;;
10100;SDS011;5090;51.258;4.436;2023-02-04T09:30:49;31.97;;;11.07;;
10100;SDS011;5090;51.258;4.436;2023-02-04T09:33:17;29.03;;;11.73;;
10100;SDS011;5090;51.258;4.436;2023-02-04T09:35:45;21.17;;;9.20;;
10100;SDS011;5090;51.258;4.436;2023-02-04T09:38:13;20.07;;;8.00;;
10100;SDS011;5090;51.258;4.436;2023-02-04T09:40:43;20.47;;;9.40;;
10100;SDS011;5090;51.258;4.436;2023-02-04T09:43:11;28.80;;;11.73;;
10100;SDS011;5090;51.258;4.436;2023-02-04T09:45:38;29.90;;;13.20;;
10100;SDS011;5090;51.258;4.436;2023-02-04T09:48:08;30.13;;;13.30;;
10100;SDS011;5090;51.258;4.436;2023-02-04T09:50:35;32.90;;;11.30;;
10100;SDS011;5090;51.258;4.436;2023-02-04T09:53:03;31.50;;;13.93;;
10100;SDS011;5090;51.258;4.436;2023-02-04T09:55:32;31.60;;;13.70;;
10100;SDS011;5090;51.258;4.436;2023-02-04T09:58:00;24.00;;;10.13;;
10100;SDS011;5090;51.258;4.436;2023-02-04T10:00:28;24.80;;;10.23;;
10100;SDS011;5090;51.258;4.436;2023-02-04T10:02:57;26.20;;;13.07;;
10100;SDS011;5090;51.258;4.436;2023-02-04T10:05:26;34.47;;;14.40;;
10100;SDS011;5090;51.258;4.436;2023-02-04T10:07:52;34.13;;;14.57;;
10100;SDS011;5090;51.258;4.436;2023-02-04T10:10:21;27.17;;;11.23;;
10100;SDS011;5090;51.258;4.436;2023-02-04T10:12:49;30.97;;;10.53;;
10100;SDS011;5090;51.258;4.436;2023-02-04T10:15:17;29.67;;;11.07;;
10100;SDS011;5090;51.258;4.436;2023-02-04T10:17:50;30.10;;;11.77;;
10100;SDS011;5090;51.258;4.436;2023-02-04T10:20:18;28.03;;;11.67;;
10100;SDS011;5090;51.258;4.436;2023-02-04T10:22:46;34.93;;;14.17;;
10100;SDS011;5090;51.258;4.436;2023-02-04T10:25:15;39.67;;;17.37;;
10100;SDS011;5090;51.258;4.436;2023-02-04T10:27:47;40.57;;;18.17;;
10100;SDS011;5090;51.258;4.436;2023-02-04T10:30:17;36.17;;;17.30;;
10100;SDS011;5090;51.258;4.436;2023-02-04T10:32:44;37.50;;;17.73;;
10100;SDS011;5090;51.258;4.436;2023-02-04T10:35:13;33.20;;;17.23;;
10100;SDS011;5090;51.258;4.436;2023-02-04T10:37:40;34.40;;;15.77;;
10100;SDS011;5090;51.258;4.436;2023-02-04T10:42:46;22.93;;;12.87;;
10100;SDS011;5090;51.258;4.436;2023-02-04T10:47:48;22.43;;;12.13;;
10100;SDS011;5090;51.258;4.436;2023-02-04T10:50:16;25.23;;;12.73;;
10100;SDS011;5090;51.258;4.436;2023-02-04T10:52:43;32.23;;;14.07;;
10100;SDS011;5090;51.258;4.436;2023-02-04T10:55:13;28.77;;;14.23;;
10100;SDS011;5090;51.258;4.436;2023-02-04T10:57:41;29.20;;;14.33;;
10100;SDS011;5090;51.258;4.436;2023-02-04T11:00:25;25.20;;;13.10;;
10100;SDS011;5090;51.258;4.436;2023-02-04T11:02:55;27.20;;;14.23;;
10100;SDS011;5090;51.258;4.436;2023-02-04T11:05:23;25.93;;;13.37;;
10100;SDS011;5090;51.258;4.436;2023-02-04T11:07:50;27.70;;;14.00;;
10100;SDS011;5090;51.258;4.436;2023-02-04T11:10:20;23.53;;;12.73;;
10100;SDS011;5090;51.258;4.436;2023-02-04T11:13:01;23.73;;;12.27;;
10100;SDS011;5090;51.258;4.436;2023-02-04T11:18:05;17.17;;;9.90;;
10100;SDS011;5090;51.258;4.436;2023-02-04T11:20:32;16.63;;;9.80;;
10100;SDS011;5090;51.258;4.436;2023-02-04T11:23:33;15.43;;;8.87;;
10100;SDS011;5090;51.258;4.436;2023-02-04T11:25:43;12.93;;;8.53;;
10100;SDS011;5090;51.258;4.436;2023-02-04T11:28:12;15.57;;;9.80;;
10100;SDS011;5090;51.258;4.436;2023-02-04T11:30:40;16.00;;;9.50;;
10100;SDS011;5090;51.258;4.436;2023-02-04T11:35:42;17.00;;;10.97;;
10100;SDS011;5090;51.258;4.436;2023-02-04T11:38:27;17.93;;;10.70;;
10100;SDS011;5090;51.258;4.436;2023-02-04T11:40:55;15.60;;;11.03;;
10100;SDS011;5090;51.258;4.436;2023-02-04T11:43:23;17.63;;;11.47;;
10100;SDS011;5090;51.258;4.436;2023-02-04T11:48:25;19.17;;;10.07;;
10100;SDS011;5090;51.258;4.436;2023-02-04T11:51:01;18.23;;;10.73;;
10100;SDS011;5090;51.258;4.436;2023-02-04T11:53:30;15.63;;;8.70;;
10100;SDS011;5090;51.258;4.436;2023-02-04T11:55:58;11.20;;;7.40;;
10100;SDS011;5090;51.258;4.436;2023-02-04T11:58:27;9.83;;;6.10;;
10100;SDS011;5090;51.258;4.436;2023-02-04T12:00:54;7.97;;;5.50;;
10100;SDS011;5090;51.258;4.436;2023-02-04T12:03:25;9.43;;;5.37;;
10100;SDS011;5090;51.258;4.436;2023-02-04T12:05:52;9.70;;;5.73;;
10100;SDS011;5090;51.258;4.436;2023-02-04T12:11:08;8.03;;;5.87;;
10100;SDS011;5090;51.258;4.436;2023-02-04T12:13:33;10.27;;;6.23;;
10100;SDS011;5090;51.258;4.436;2023-02-04T12:16:03;12.80;;;5.80;;
10100;SDS011;5090;51.258;4.436;2023-02-04T12:18:30;8.53;;;5.60;;
10100;SDS011;5090;51.258;4.436;2023-02-04T12:20:58;12.67;;;5.93;;
10100;SDS011;5090;51.258;4.436;2023-02-04T12:23:27;12.43;;;5.63;;
10100;SDS011;5090;51.258;4.436;2023-02-04T12:25:55;9.27;;;5.57;;
10100;SDS011;5090;51.258;4.436;2023-02-04T12:28:23;8.27;;;5.40;;
10100;SDS011;5090;51.258;4.436;2023-02-04T12:30:51;10.20;;;5.93;;
10100;SDS011;5090;51.258;4.436;2023-02-04T12:33:19;9.37;;;5.83;;
10100;SDS011;5090;51.258;4.436;2023-02-04T12:35:47;8.67;;;6.03;;
10100;SDS011;5090;51.258;4.436;2023-02-04T12:38:16;9.30;;;6.20;;
10100;SDS011;5090;51.258;4.436;2023-02-04T12:40:44;9.63;;;5.57;;
10100;SDS011;5090;51.258;4.436;2023-02-04T12:43:12;8.53;;;5.93;;
10100;SDS011;5090;51.258;4.436;2023-02-04T12:45:40;6.93;;;5.57;;
10100;SDS011;5090;51.258;4.436;2023-02-04T12:48:09;13.10;;;5.93;;
10100;SDS011;5090;51.258;4.436;2023-02-04T12:50:37;13.80;;;6.53;;
10100;SDS011;5090;51.258;4.436;2023-02-04T12:53:05;9.97;;;6.13;;
10100;SDS011;5090;51.258;4.436;2023-02-04T12:55:33;7.07;;;5.97;;
10100;SDS011;5090;51.258;4.436;2023-02-04T12:58:01;8.47;;;5.63;;
10100;SDS011;5090;51.258;4.436;2023-02-04T13:00:30;8.90;;;6.17;;
10100;SDS011;5090;51.258;4.436;2023-02-04T13:02:58;9.87;;;6.70;;
10100;SDS011;5090;51.258;4.436;2023-02-04T13:05:26;10.53;;;7.43;;
10100;SDS011;5090;51.258;4.436;2023-02-04T13:07:54;12.60;;;8.03;;
10100;SDS011;5090;51.258;4.436;2023-02-04T13:10:22;10.73;;;6.93;;
10100;SDS011;5090;51.258;4.436;2023-02-04T13:12:51;13.70;;;8.30;;
10100;SDS011;5090;51.258;4.436;2023-02-04T13:15:19;13.57;;;7.50;;
10100;SDS011;5090;51.258;4.436;2023-02-04T13:17:47;11.93;;;7.47;;
10100;SDS011;5090;51.258;4.436;2023-02-04T13:20:16;12.57;;;7.80;;
10100;SDS011;5090;51.258;4.436;2023-02-04T13:22:44;15.93;;;8.20;;
10100;SDS011;5090;51.258;4.436;2023-02-04T13:25:12;13.53;;;8.17;;
10100;SDS011;5090;51.258;4.436;2023-02-04T13:27:40;12.33;;;8.13;;
10100;SDS011;5090;51.258;4.436;2023-02-04T13:30:10;14.10;;;8.70;;
10100;SDS011;5090;51.258;4.436;2023-02-04T13:32:38;13.00;;;8.60;;
10100;SDS011;5090;51.258;4.436;2023-02-04T13:35:06;12.60;;;8.13;;
10100;SDS011;5090;51.258;4.436;2023-02-04T13:37:34;13.87;;;8.93;;
10100;SDS011;5090;51.258;4.436;2023-02-04T13:40:04;15.67;;;8.93;;
10100;SDS011;5090;51.258;4.436;2023-02-04T13:42:31;22.70;;;9.73;;
10100;SDS011;5090;51.258;4.436;2023-02-04T13:44:59;14.37;;;9.47;;
10100;SDS011;5090;51.258;4.436;2023-02-04T13:47:27;13.57;;;8.50;;
10100;SDS011;5090;51.258;4.436;2023-02-04T13:49:56;12.27;;;7.87;;
10100;SDS011;5090;51.258;4.436;2023-02-04T13:52:24;11.27;;;7.43;;
10100;SDS011;5090;51.258;4.436;2023-02-04T13:54:53;12.40;;;7.13;;
10100;SDS011;5090;51.258;4.436;2023-02-04T13:57:20;11.20;;;7.03;;
10100;SDS011;5090;51.258;4.436;2023-02-04T13:59:48;12.30;;;7.70;;
10100;SDS011;5090;51.258;4.436;2023-02-04T14:02:17;12.73;;;8.13;;
10100;SDS011;5090;51.258;4.436;2023-02-04T14:04:46;14.93;;;8.83;;
10100;SDS011;5090;51.258;4.436;2023-02-04T14:07:14;17.50;;;8.67;;
10100;SDS011;5090;51.258;4.436;2023-02-04T14:09:42;11.93;;;8.07;;
10100;SDS011;5090;51.258;4.436;2023-02-04T14:12:11;13.10;;;7.70;;
10100;SDS011;5090;51.258;4.436;2023-02-04T14:14:39;11.17;;;7.40;;
10100;SDS011;5090;51.258;4.436;2023-02-04T14:17:07;10.20;;;7.07;;
10100;SDS011;5090;51.258;4.436;2023-02-04T14:19:35;10.40;;;6.33;;
10100;SDS011;5090;51.258;4.436;2023-02-04T14:22:04;12.77;;;7.40;;
10100;SDS011;5090;51.258;4.436;2023-02-04T14:24:32;11.17;;;6.60;;
10100;SDS011;5090;51.258;4.436;2023-02-04T14:27:01;10.07;;;7.13;;
10100;SDS011;5090;51.258;4.436;2023-02-04T14:29:29;9.90;;;7.07;;
10100;SDS011;5090;51.258;4.436;2023-02-04T14:31:57;12.57;;;7.20;;
10100;SDS011;5090;51.258;4.436;2023-02-04T14:34:25;10.27;;;7.30;;
10100;SDS011;5090;51.258;4.436;2023-02-04T14:36:53;10.17;;;6.97;;
10100;SDS011;5090;51.258;4.436;2023-02-04T14:39:22;12.57;;;7.30;;
10100;SDS011;5090;51.258;4.436;2023-02-04T14:41:50;12.87;;;7.00;;
10100;SDS011;5090;51.258;4.436;2023-02-04T14:44:18;11.37;;;7.00;;
10100;SDS011;5090;51.258;4.436;2023-02-04T14:46:47;10.03;;;6.13;;
10100;SDS011;5090;51.258;4.436;2023-02-04T14:49:15;11.67;;;6.40;;
10100;SDS011;5090;51.258;4.436;2023-02-04T14:51:43;8.17;;;5.50;;
10100;SDS011;5090;51.258;4.436;2023-02-04T14:54:11;10.73;;;6.00;;
10100;SDS011;5090;51.258;4.436;2023-02-04T14:56:39;9.17;;;6.00;;
10100;SDS011;5090;51.258;4.436;2023-02-04T14:59:07;11.63;;;6.10;;
10100;SDS011;5090;51.258;4.436;2023-02-04T15:01:36;8.87;;;5.90;;